createdAt,value
2019-03-13T00:02:41.058Z,99254.31
2019-03-13T00:03:52.582Z,99252.90
2019-03-13T00:04:56.844Z,99235.80
2019-03-13T00:06:01.086Z,99238.22
2019-03-13T00:07:09.054Z,99245.89
2019-03-13T00:08:16.416Z,99241.97
2019-03-13T00:09:25.040Z,99231.34
2019-03-13T00:10:32.394Z,99223.00
2019-03-13T00:11:38.344Z,99225.17
2019-03-13T00:12:42.594Z,99222.19
2019-03-13T00:13:46.831Z,99222.61
2019-03-13T00:14:52.174Z,99221.81
2019-03-13T00:15:59.250Z,99211.91
2019-03-13T00:17:03.496Z,99209.29
2019-03-13T00:18:07.900Z,99212.72
2019-03-13T00:19:12.162Z,99200.88
2019-03-13T00:20:16.515Z,99198.66
2019-03-13T00:21:20.763Z,99200.66
2019-03-13T00:22:27.679Z,99209.79
2019-03-13T00:23:31.930Z,99203.09
2019-03-13T00:24:39.099Z,99204.40
2019-03-13T00:25:43.523Z,99207.02
2019-03-13T00:26:47.771Z,99204.56
2019-03-13T00:27:54.708Z,99210.24
2019-03-13T00:28:58.937Z,99208.94
2019-03-13T00:30:03.214Z,99211.23
2019-03-13T00:31:08.671Z,99209.98
2019-03-13T00:32:13.286Z,99208.17
2019-03-13T00:33:20.434Z,99206.00
2019-03-13T00:34:27.741Z,99200.77
2019-03-13T00:35:32.399Z,99202.47
2019-03-13T00:36:39.745Z,99197.34
2019-03-13T00:37:45.025Z,99194.16
2019-03-13T00:38:49.268Z,99191.55
2019-03-13T00:39:53.521Z,99183.59
2019-03-13T00:40:57.785Z,99185.31
2019-03-13T00:42:04.742Z,99184.03
2019-03-13T00:43:09.148Z,99183.09
2019-03-13T00:44:13.383Z,99182.02
2019-03-13T00:45:18.062Z,99187.56
2019-03-13T00:46:23.211Z,99180.64
2019-03-13T00:47:30.241Z,99183.25
2019-03-13T00:48:34.791Z,99178.39
2019-03-13T00:49:41.993Z,99167.37
2019-03-13T00:50:46.555Z,99175.16
2019-03-13T00:51:50.826Z,99160.80
2019-03-13T00:52:58.128Z,99164.20
2019-03-13T00:54:02.754Z,99165.91
2019-03-13T00:55:07.024Z,99173.81
2019-03-13T00:56:14.304Z,99154.24
2019-03-13T00:57:21.495Z,99164.73
2019-03-13T00:58:25.761Z,99160.78
2019-03-13T00:59:30.003Z,99161.17
2019-03-13T01:00:38.605Z,99156.80
2019-03-13T01:01:44.488Z,99161.95
2019-03-13T01:02:50.376Z,99158.97
2019-03-13T01:03:59.201Z,99157.66
2019-03-13T01:05:08.469Z,99168.83
2019-03-13T01:06:17.244Z,99165.91
2019-03-13T01:07:21.487Z,99162.78
2019-03-13T01:08:28.447Z,99161.59
2019-03-13T01:09:33.084Z,99159.47
2019-03-13T01:10:37.340Z,99162.09
2019-03-13T01:11:44.536Z,99153.23
2019-03-13T01:12:48.759Z,99144.74
2019-03-13T01:13:53.039Z,99140.76
2019-03-13T01:14:57.303Z,99136.45
2019-03-13T01:16:01.633Z,99136.47
2019-03-13T01:17:07.400Z,99138.28
2019-03-13T01:18:11.816Z,99137.34
2019-03-13T01:19:18.877Z,99128.59
2019-03-13T01:20:23.127Z,99142.57
2019-03-13T01:21:28.205Z,99137.84
2019-03-13T01:22:35.128Z,99146.58
2019-03-13T01:23:42.239Z,99143.52
2019-03-13T01:24:46.481Z,99146.13
2019-03-13T01:25:50.729Z,99149.17
2019-03-13T01:26:57.995Z,99138.64
2019-03-13T01:28:02.555Z,99135.61
2019-03-13T01:29:06.826Z,99133.41
2019-03-13T01:30:12.893Z,99136.47
2019-03-13T01:31:27.475Z,99126.92
2019-03-13T01:32:33.411Z,99132.19
2019-03-13T01:33:37.910Z,99139.23
2019-03-13T01:34:46.760Z,99155.80
2019-03-13T01:36:07.619Z,99154.05
2019-03-13T01:37:11.887Z,99153.55
2019-03-13T01:38:16.125Z,99150.42
2019-03-13T01:39:23.376Z,99160.01
2019-03-13T01:40:30.349Z,99161.34
2019-03-13T01:41:37.259Z,99146.50
2019-03-13T01:42:41.963Z,99156.27
2019-03-13T01:43:46.207Z,99141.87
2019-03-13T01:44:50.897Z,99160.03
2019-03-13T01:45:55.502Z,99150.87
2019-03-13T01:46:59.775Z,99154.02
2019-03-13T01:48:04.317Z,99171.23
2019-03-13T01:49:08.576Z,99186.98
2019-03-13T01:50:13.185Z,99174.84
2019-03-13T01:51:17.503Z,99170.70
2019-03-13T01:52:21.798Z,99174.81
2019-03-13T01:53:28.969Z,99165.81
2019-03-13T01:54:33.539Z,99177.33
2019-03-13T01:55:37.789Z,99176.11
2019-03-13T01:56:42.055Z,99177.59
2019-03-13T01:57:50.257Z,99183.33
2019-03-13T01:58:54.497Z,99173.55
2019-03-13T01:59:58.750Z,99179.35
2019-03-13T02:01:02.991Z,99186.07
2019-03-13T02:02:09.949Z,99186.14
2019-03-13T02:03:18.480Z,99194.09
2019-03-13T02:04:23.117Z,99180.78
2019-03-13T02:05:27.344Z,99185.31
2019-03-13T02:06:34.579Z,99190.37
2019-03-13T02:07:39.190Z,99189.84
2019-03-13T02:08:43.433Z,99190.19
2019-03-13T02:09:47.699Z,99193.09
2019-03-13T02:10:51.935Z,99193.32
2019-03-13T02:11:56.176Z,99200.44
2019-03-13T02:13:00.510Z,99191.91
2019-03-13T02:14:04.789Z,99192.50
2019-03-13T02:15:11.841Z,99193.91
2019-03-13T02:16:19.033Z,99201.86
2019-03-13T02:17:25.955Z,99195.05
2019-03-13T02:18:33.180Z,99210.86
2019-03-13T02:19:40.296Z,99200.53
2019-03-13T02:20:44.557Z,99210.64
2019-03-13T02:21:48.834Z,99207.65
2019-03-13T02:22:54.114Z,99206.93
2019-03-13T02:23:58.360Z,99196.01
2019-03-13T02:25:07.675Z,99206.11
2019-03-13T02:26:11.912Z,99201.37
2019-03-13T02:27:16.163Z,99199.25
2019-03-13T02:28:23.240Z,99194.99
2019-03-13T02:29:27.638Z,99196.36
2019-03-13T02:30:32.902Z,99201.86
2019-03-13T02:31:37.146Z,99200.06
2019-03-13T02:32:41.389Z,99197.06
2019-03-13T02:33:45.654Z,99194.56
2019-03-13T02:34:49.897Z,99198.63
2019-03-13T02:35:58.881Z,99195.20
2019-03-13T02:37:02.877Z,99195.25
2019-03-13T02:38:07.158Z,99189.68
2019-03-13T02:39:14.832Z,99194.56
2019-03-13T02:40:22.441Z,99190.28
2019-03-13T02:41:26.671Z,99194.24
2019-03-13T02:42:30.934Z,99189.07
2019-03-13T02:43:35.267Z,99195.68
2019-03-13T02:44:42.648Z,99183.47
2019-03-13T02:45:46.984Z,99182.26
2019-03-13T02:46:51.227Z,99183.60
2019-03-13T02:47:55.509Z,99187.03
2019-03-13T02:48:59.748Z,99182.22
2019-03-13T02:50:09.934Z,99183.13
2019-03-13T02:51:14.192Z,99179.27
2019-03-13T02:52:18.434Z,99177.22
2019-03-13T02:53:25.470Z,99171.92
2019-03-13T02:54:29.789Z,99167.96
2019-03-13T02:55:34.037Z,99165.35
2019-03-13T02:56:38.658Z,99156.14
2019-03-13T02:57:45.946Z,99159.94
2019-03-13T02:58:50.528Z,99160.34
2019-03-13T02:59:54.777Z,99154.73
2019-03-13T03:01:15.918Z,99149.95
2019-03-13T03:02:28.020Z,99150.81
2019-03-13T03:03:36.632Z,99151.39
2019-03-13T03:04:44.067Z,99149.63
2019-03-13T03:05:51.037Z,99155.27
2019-03-13T03:06:55.283Z,99154.34
2019-03-13T03:07:59.535Z,99146.58
2019-03-13T03:09:06.733Z,99145.26
2019-03-13T03:10:15.785Z,99149.91
2019-03-13T03:11:20.441Z,99139.09
2019-03-13T03:12:24.678Z,99142.51
2019-03-13T03:13:31.643Z,99148.50
2019-03-13T03:14:39.166Z,99148.92
2019-03-13T03:15:43.435Z,99155.39
2019-03-13T03:16:47.706Z,99152.73
2019-03-13T03:17:55.214Z,99158.00
2019-03-13T03:18:59.493Z,99165.39
2019-03-13T03:20:05.561Z,99165.83
2019-03-13T03:21:09.823Z,99168.92
2019-03-13T03:22:14.149Z,99177.95
2019-03-13T03:23:21.093Z,99170.55
2019-03-13T03:24:28.122Z,99174.56
2019-03-13T03:25:35.481Z,99173.66
2019-03-13T03:26:39.749Z,99184.09
2019-03-13T03:27:43.992Z,99174.52
2019-03-13T03:28:51.204Z,99184.95
2019-03-13T03:29:55.444Z,99184.08
2019-03-13T03:31:00.062Z,99189.63
2019-03-13T03:32:04.306Z,99193.02
2019-03-13T03:33:11.268Z,99195.53
2019-03-13T03:34:15.548Z,99204.17
2019-03-13T03:35:22.708Z,99200.27
2019-03-13T03:36:27.181Z,99210.27
2019-03-13T03:37:34.196Z,99211.03
2019-03-13T03:38:41.140Z,99219.16
2019-03-13T03:39:48.605Z,99219.16
2019-03-13T03:40:55.773Z,99218.95
2019-03-13T03:42:00.040Z,99236.34
2019-03-13T03:43:07.740Z,99224.85
2019-03-13T03:44:15.036Z,99229.37
2019-03-13T03:45:22.590Z,99241.89
2019-03-13T03:46:27.257Z,99238.46
2019-03-13T03:47:34.185Z,99243.24
2019-03-13T03:48:41.125Z,99242.38
2019-03-13T03:49:45.420Z,99244.16
2019-03-13T03:50:52.642Z,99239.43
2019-03-13T03:51:56.886Z,99252.05
2019-03-13T03:53:01.146Z,99255.63
2019-03-13T03:54:05.384Z,99253.06
2019-03-13T03:55:11.718Z,99257.42
2019-03-13T03:56:16.030Z,99261.44
2019-03-13T03:57:20.284Z,99267.52
2019-03-13T03:58:28.706Z,99265.41
2019-03-13T03:59:30.586Z,99273.72
2019-03-13T04:00:34.892Z,99285.45
2019-03-13T04:01:39.225Z,99283.38
2019-03-13T04:02:43.777Z,99286.81
2019-03-13T04:03:48.025Z,99288.60
2019-03-13T04:04:52.614Z,99294.35
2019-03-13T04:05:56.896Z,99294.73
2019-03-13T04:07:03.875Z,99302.18
2019-03-13T04:08:08.112Z,99304.41
2019-03-13T04:09:15.436Z,99304.41
2019-03-13T04:10:22.833Z,99310.58
2019-03-13T04:11:27.167Z,99304.92
2019-03-13T04:12:34.321Z,99310.62
2019-03-13T04:13:44.528Z,99312.45
2019-03-13T04:14:49.936Z,99312.54
2019-03-13T04:15:54.173Z,99316.45
2019-03-13T04:16:58.412Z,99314.20
2019-03-13T04:18:02.650Z,99318.20
2019-03-13T04:19:09.602Z,99322.55
2019-03-13T04:20:16.276Z,99327.80
2019-03-13T04:21:20.585Z,99323.07
2019-03-13T04:22:25.154Z,99330.85
2019-03-13T04:23:32.396Z,99334.85
2019-03-13T04:24:36.673Z,99333.59
2019-03-13T04:25:40.913Z,99344.90
2019-03-13T04:26:46.683Z,99344.90
2019-03-13T04:27:51.353Z,99349.24
2019-03-13T04:28:55.615Z,99351.02
2019-03-13T04:29:59.870Z,99354.11
2019-03-13T04:31:06.841Z,99351.94
2019-03-13T04:32:14.686Z,99364.55
2019-03-13T04:33:21.734Z,99364.98
2019-03-13T04:34:28.959Z,99371.06
2019-03-13T04:35:33.427Z,99369.34
2019-03-13T04:36:37.677Z,99378.47
2019-03-13T04:37:42.440Z,99373.29
2019-03-13T04:38:47.821Z,99376.29
2019-03-13T04:39:56.215Z,99374.98
2019-03-13T04:41:03.336Z,99381.50
2019-03-13T04:42:11.233Z,99387.71
2019-03-13T04:56:54.618Z,99403.48
2019-03-13T04:58:03.176Z,99407.86
2019-03-13T04:59:08.054Z,99415.25
2019-03-13T05:00:19.745Z,99414.02
2019-03-13T05:01:26.385Z,99419.24
2019-03-13T05:02:33.667Z,99420.98
2019-03-13T05:03:38.104Z,99413.12
2019-03-13T05:04:47.454Z,99418.38
2019-03-13T05:05:57.755Z,99429.20
2019-03-13T05:07:02.185Z,99429.67
2019-03-13T05:08:10.866Z,99434.84
2019-03-13T05:09:18.625Z,99430.97
2019-03-13T05:10:24.833Z,99434.48
2019-03-13T05:11:29.196Z,99435.75
2019-03-13T05:12:36.629Z,99432.75
2019-03-13T05:13:40.936Z,99436.19
2019-03-13T05:14:48.125Z,99445.35
2019-03-13T05:15:52.545Z,99443.18
2019-03-13T05:16:59.454Z,99438.40
2019-03-13T05:18:03.735Z,99440.57
2019-03-13T05:19:10.858Z,99442.75
2019-03-13T05:20:15.203Z,99433.62
2019-03-13T05:21:19.452Z,99454.48
2019-03-13T05:22:26.990Z,99447.56
2019-03-13T05:23:34.064Z,99454.12
2019-03-13T05:24:41.295Z,99455.89
2019-03-13T05:25:48.303Z,99453.28
2019-03-13T05:26:52.972Z,99455.45
2019-03-13T05:27:57.351Z,99463.24
2019-03-13T05:29:01.594Z,99467.55
2019-03-13T05:30:09.905Z,99471.53
2019-03-13T05:31:14.223Z,99472.84
2019-03-13T05:32:18.611Z,99464.11
2019-03-13T05:33:25.771Z,99477.98
2019-03-13T05:34:30.025Z,99467.16
2019-03-13T05:35:34.493Z,99471.94
2019-03-13T05:36:38.943Z,99475.45
2019-03-13T05:37:43.188Z,99480.70
2019-03-13T05:38:47.619Z,99478.16
2019-03-13T05:39:54.464Z,99477.22
2019-03-13T05:41:02.014Z,99476.34
2019-03-13T05:42:09.285Z,99477.69
2019-03-13T05:43:16.227Z,99477.69
2019-03-13T05:44:20.466Z,99482.94
2019-03-13T05:45:24.744Z,99480.33
2019-03-13T05:46:29.009Z,99484.27
2019-03-13T05:47:33.357Z,99480.39
2019-03-13T05:48:37.643Z,99482.57
2019-03-13T05:49:44.852Z,99482.13
2019-03-13T05:50:49.127Z,99490.35
2019-03-13T05:51:53.406Z,99487.75
2019-03-13T05:53:00.613Z,99485.58
2019-03-13T05:54:05.004Z,99494.67
2019-03-13T05:55:09.354Z,99487.28
2019-03-13T05:56:13.601Z,99489.05
2019-03-13T05:57:18.260Z,99491.22
2019-03-13T05:58:25.660Z,99490.76
2019-03-13T05:59:29.899Z,99491.66
2019-03-13T06:00:34.148Z,99488.11
2019-03-13T06:01:38.513Z,99494.67
2019-03-13T06:02:42.766Z,99489.89
2019-03-13T06:03:46.999Z,99492.89
2019-03-13T06:04:51.705Z,99495.56
2019-03-13T06:05:55.978Z,99502.09
2019-03-13T06:07:03.025Z,99492.49
2019-03-13T06:08:07.267Z,99497.70
2019-03-13T06:09:14.194Z,99495.94
2019-03-13T06:10:21.623Z,99505.06
2019-03-13T06:11:25.889Z,99494.20
2019-03-13T06:12:30.240Z,99500.25
2019-03-13T06:13:34.445Z,99500.25
2019-03-13T06:14:38.703Z,99508.06
2019-03-13T06:15:44.790Z,99513.25
2019-03-13T06:16:49.053Z,99505.50
2019-03-13T06:17:53.330Z,99513.72
2019-03-13T06:18:57.575Z,99508.94
2019-03-13T06:20:01.812Z,99509.38
2019-03-13T06:21:06.143Z,99515.45
2019-03-13T06:22:10.404Z,99514.59
2019-03-13T06:23:17.356Z,99521.54
2019-03-13T06:24:21.606Z,99516.72
2019-03-13T06:25:29.174Z,99524.52
2019-03-13T06:26:33.445Z,99526.66
2019-03-13T06:27:37.750Z,99521.94
2019-03-13T06:28:42.037Z,99524.95
2019-03-13T06:29:46.442Z,99529.27
2019-03-13T06:30:54.051Z,99527.13
2019-03-13T06:31:58.311Z,99525.78
2019-03-13T06:33:05.786Z,99529.70
2019-03-13T06:34:14.604Z,99525.34
2019-03-13T06:35:23.791Z,99527.05
2019-03-13T06:36:27.864Z,99526.55
2019-03-13T06:37:35.071Z,99531.30
2019-03-13T06:38:39.372Z,99532.20
2019-03-13T06:39:43.607Z,99535.67
2019-03-13T06:40:50.551Z,99533.14
2019-03-13T06:41:54.835Z,99535.28
2019-03-13T06:42:59.093Z,99536.98
2019-03-13T06:44:06.065Z,99535.25
2019-03-13T06:45:13.316Z,99538.75
2019-03-13T06:46:17.580Z,99535.20
2019-03-13T06:47:24.870Z,99540.42
2019-03-13T06:48:27.763Z,99540.02
2019-03-13T06:49:34.686Z,99539.95
2019-03-13T06:50:41.902Z,99542.56
2019-03-13T06:51:49.086Z,99546.91
2019-03-13T06:52:53.321Z,99545.58
2019-03-13T06:53:57.559Z,99536.48
2019-03-13T06:55:01.812Z,99546.41
2019-03-13T06:56:06.063Z,99546.01
2019-03-13T06:57:10.346Z,99546.88
2019-03-13T06:58:18.988Z,99542.93
2019-03-13T06:59:31.378Z,99542.03
2019-03-13T07:00:40.436Z,99552.92
2019-03-13T07:01:49.070Z,99552.02
2019-03-13T07:03:04.218Z,99549.38
2019-03-13T07:04:10.100Z,99560.18
2019-03-13T07:05:21.323Z,99560.66
2019-03-13T07:06:46.175Z,99559.31
2019-03-13T07:07:54.839Z,99561.89
2019-03-13T07:09:00.769Z,99558.01
2019-03-13T07:10:17.352Z,99544.53
2019-03-13T07:11:43.370Z,99555.00
2019-03-13T07:12:55.464Z,99557.14
2019-03-13T07:14:16.115Z,99547.54
2019-03-13T07:15:27.914Z,99550.14
2019-03-13T07:16:39.460Z,99551.81
2019-03-13T07:17:51.749Z,99559.64
2019-03-13T07:19:17.087Z,99559.17
2019-03-13T07:20:24.538Z,99563.95
2019-03-13T07:21:33.151Z,99567.03
2019-03-13T07:22:39.066Z,99558.73
2019-03-13T07:23:47.624Z,99561.20
2019-03-13T07:24:59.399Z,99561.02
2019-03-13T07:26:17.324Z,99572.14
2019-03-13T07:27:29.128Z,99567.95
2019-03-13T07:28:37.699Z,99566.89
2019-03-13T07:29:49.437Z,99570.56
2019-03-13T07:31:13.371Z,99567.30
2019-03-13T07:32:19.312Z,99556.42
2019-03-13T07:33:30.889Z,99560.03
2019-03-13T07:34:51.843Z,99560.85
2019-03-13T07:36:00.884Z,99558.16
2019-03-13T07:37:09.639Z,99553.23
2019-03-13T07:38:36.357Z,99562.54
2019-03-13T07:39:51.338Z,99562.09
2019-03-13T07:41:08.663Z,99560.88
2019-03-13T07:42:24.244Z,99566.09
2019-03-13T07:43:32.599Z,99571.23
2019-03-13T07:44:54.824Z,99560.23
2019-03-13T07:46:10.000Z,99559.28
2019-03-13T07:47:37.171Z,99554.97
2019-03-13T07:49:01.381Z,99564.03
2019-03-13T07:50:14.100Z,99555.84
2019-03-13T07:51:19.989Z,99557.94
2019-03-13T07:52:43.472Z,99558.33
2019-03-13T07:54:08.518Z,99555.62
2019-03-13T07:55:24.242Z,99569.56
2019-03-13T07:56:45.079Z,99559.59
2019-03-13T07:58:07.422Z,99559.52
2019-03-13T07:59:25.437Z,99562.12
2019-03-13T08:00:40.096Z,99563.77
2019-03-13T08:01:52.075Z,99567.69
2019-03-13T08:03:12.899Z,99563.26
2019-03-13T08:04:18.791Z,99560.12
2019-03-13T08:05:36.789Z,99563.91
2019-03-13T08:06:54.598Z,99563.78
2019-03-13T08:08:09.718Z,99552.31
2019-03-13T08:09:32.622Z,99568.04
2019-03-13T08:10:40.941Z,99559.16
2019-03-13T08:11:49.549Z,99558.58
2019-03-13T08:12:58.459Z,99559.84
2019-03-13T08:14:04.325Z,99564.77
2019-03-13T08:15:14.772Z,99567.52
2019-03-13T08:16:21.041Z,99551.31
2019-03-13T08:17:39.044Z,99550.44
2019-03-13T08:18:48.530Z,99557.31
2019-03-13T08:19:57.132Z,99561.57
2019-03-13T08:21:11.707Z,99556.39
2019-03-13T08:22:17.683Z,99560.36
2019-03-13T08:23:26.710Z,99555.23
2019-03-13T08:24:38.619Z,99565.82
2019-03-13T08:26:00.719Z,99557.73
2019-03-13T08:27:10.562Z,99560.34
2019-03-13T08:28:32.789Z,99552.61
2019-03-13T08:29:38.732Z,99557.13
2019-03-13T08:30:53.813Z,99565.36
2019-03-13T08:32:08.762Z,99547.69
2019-03-13T08:33:32.312Z,99556.06
2019-03-13T08:34:41.093Z,99544.86
2019-03-13T08:35:46.981Z,99552.30
2019-03-13T08:36:54.538Z,99546.84
2019-03-13T08:38:06.367Z,99552.67
2019-03-13T08:39:15.498Z,99547.01
2019-03-13T08:40:38.042Z,99553.59
2019-03-13T08:41:43.933Z,99553.47
2019-03-13T08:43:09.085Z,99554.61
2019-03-13T08:44:17.763Z,99536.64
2019-03-13T08:45:33.765Z,99539.64
2019-03-13T08:46:56.042Z,99544.63
2019-03-13T08:48:18.059Z,99534.41
2019-03-13T08:49:26.947Z,99539.33
2019-03-13T08:50:42.235Z,99541.83
2019-03-13T08:51:48.131Z,99532.01
2019-03-13T08:53:00.916Z,99536.69
2019-03-13T08:54:24.219Z,99540.41
2019-03-13T08:55:35.906Z,99529.84
2019-03-13T08:56:41.777Z,99532.67
2019-03-13T08:57:53.453Z,99523.84
2019-03-13T08:59:02.711Z,99525.36
2019-03-13T09:00:16.398Z,99530.98
2019-03-13T09:01:24.977Z,99528.97
2019-03-13T09:02:34.001Z,99525.48
2019-03-13T09:03:49.570Z,99535.14
2019-03-13T09:05:07.385Z,99537.79
2019-03-13T09:06:16.297Z,99530.59
2019-03-13T09:07:27.840Z,99524.37
2019-03-13T09:08:33.741Z,99518.05
2019-03-13T09:09:51.506Z,99515.84
2019-03-13T09:11:05.789Z,99513.53
2019-03-13T09:12:27.295Z,99520.70
2019-03-13T09:13:38.521Z,99512.54
2019-03-13T09:14:47.183Z,99516.25
2019-03-13T09:16:05.038Z,99514.22
2019-03-13T09:17:19.737Z,99517.08
2019-03-13T09:18:31.234Z,99512.63
2019-03-13T09:19:52.001Z,99510.63
2019-03-13T09:21:06.827Z,99501.19
2019-03-13T09:22:18.745Z,99504.50
2019-03-13T09:23:27.335Z,99513.79
2019-03-13T09:24:35.875Z,99509.86
2019-03-13T09:25:44.771Z,99504.77
2019-03-13T09:27:11.581Z,99497.46
2019-03-13T09:28:32.124Z,99504.99
2019-03-13T09:29:40.786Z,99510.26
2019-03-13T09:30:55.865Z,99512.87
2019-03-13T09:32:17.018Z,99505.95
2019-03-13T09:33:34.875Z,99496.65
2019-03-13T09:34:49.767Z,99501.64
2019-03-13T09:35:55.659Z,99502.14
2019-03-13T09:37:04.304Z,99501.34
2019-03-13T09:38:21.917Z,99502.38
2019-03-13T09:39:27.835Z,99498.75
2019-03-13T09:40:33.780Z,99497.70
2019-03-13T09:41:42.376Z,99491.59
2019-03-13T09:42:50.681Z,99494.40
2019-03-13T09:44:08.468Z,99494.27
2019-03-13T09:45:30.702Z,99488.78
2019-03-13T09:46:39.316Z,99487.55
2019-03-13T09:48:01.471Z,99496.70
2019-03-13T09:49:22.408Z,99500.65
2019-03-13T09:50:40.262Z,99498.70
2019-03-13T09:51:49.551Z,99490.10
2019-03-13T09:53:01.136Z,99499.52
2019-03-13T09:54:25.315Z,99495.91
2019-03-13T09:55:32.202Z,99498.40
2019-03-13T09:56:47.155Z,99489.84
2019-03-13T09:57:58.833Z,99492.95
2019-03-13T09:59:10.423Z,99480.05
2019-03-13T10:00:25.182Z,99488.41
2019-03-13T10:01:37.457Z,99487.60
2019-03-13T10:03:05.034Z,99481.55
2019-03-13T10:04:27.738Z,99486.84
2019-03-13T10:05:42.925Z,99484.17
2019-03-13T10:06:48.875Z,99484.33
2019-03-13T10:08:00.479Z,99493.69
2019-03-13T10:09:08.915Z,99486.77
2019-03-13T10:10:33.015Z,99485.92
2019-03-13T10:11:44.606Z,99482.13
2019-03-13T10:12:50.551Z,99477.69
2019-03-13T10:13:56.567Z,99474.09
2019-03-13T10:15:08.349Z,99472.98
2019-03-13T10:16:26.460Z,99474.16
2019-03-13T10:17:51.843Z,99484.22
2019-03-13T10:19:16.283Z,99469.13
2019-03-13T10:20:22.166Z,99479.42
2019-03-13T10:21:46.117Z,99461.89
2019-03-13T10:23:00.674Z,99464.25
2019-03-13T10:24:09.249Z,99457.27
2019-03-13T10:25:17.953Z,99468.79
2019-03-13T10:26:29.684Z,99462.67
2019-03-13T10:27:50.511Z,99458.09
2019-03-13T10:28:59.126Z,99468.56
2019-03-13T10:30:05.395Z,99454.59
2019-03-13T10:31:14.317Z,99448.50
2019-03-13T10:32:23.002Z,99453.25
2019-03-13T10:33:37.319Z,99449.81
2019-03-13T10:34:43.249Z,99419.59
2019-03-13T10:35:57.878Z,99452.64
2019-03-13T10:37:07.010Z,99451.19
2019-03-13T10:38:21.977Z,99440.27
2019-03-13T10:39:44.036Z,99448.00
2019-03-13T10:41:08.553Z,99439.94
2019-03-13T10:42:26.439Z,99454.73
2019-03-13T10:43:35.261Z,99440.36
2019-03-13T10:44:53.119Z,99439.73
2019-03-13T10:46:04.842Z,99430.41
2019-03-13T10:47:10.845Z,99430.92
2019-03-13T10:48:19.730Z,99442.23
2019-03-13T10:49:25.640Z,99431.28
2019-03-13T10:50:43.581Z,99432.38
2019-03-13T10:51:52.200Z,99425.51
2019-03-13T10:53:19.482Z,99421.45
2019-03-13T10:54:45.960Z,99415.23
2019-03-13T10:56:08.009Z,99409.34
2019-03-13T10:57:28.915Z,99405.09
2019-03-13T10:58:50.092Z,99411.75
2019-03-13T10:59:58.838Z,99413.16
2019-03-13T11:01:20.613Z,99414.78
2019-03-13T11:02:29.260Z,99402.36
2019-03-13T11:03:53.038Z,99405.34
2019-03-13T11:04:58.951Z,99402.05
2019-03-13T11:06:26.872Z,99403.20
2019-03-13T11:07:38.418Z,99412.98
2019-03-13T11:08:47.307Z,99402.33
2019-03-13T11:09:56.088Z,99403.55
2019-03-13T11:11:16.667Z,99401.96
2019-03-13T11:12:37.531Z,99393.28
2019-03-13T11:13:46.536Z,99389.19
2019-03-13T11:15:11.814Z,99388.08
2019-03-13T11:16:23.686Z,99400.52
2019-03-13T11:17:38.342Z,99403.08
2019-03-13T11:18:47.275Z,99387.60
2019-03-13T11:19:53.565Z,99393.31
2019-03-13T11:21:02.408Z,99400.34
2019-03-13T11:22:08.809Z,99395.86
2019-03-13T11:23:17.784Z,99397.38
2019-03-13T11:24:26.585Z,99397.36
2019-03-13T11:25:41.240Z,99393.45
2019-03-13T11:26:55.746Z,99393.45
2019-03-13T11:28:10.237Z,99397.48
2019-03-13T11:29:18.831Z,99397.22
2019-03-13T11:30:24.785Z,99389.72
2019-03-13T11:31:50.164Z,99382.86
2019-03-13T11:33:15.552Z,99392.13
2019-03-13T11:34:24.520Z,99392.80
2019-03-13T11:35:41.029Z,99398.23
2019-03-13T11:36:46.939Z,99390.69
2019-03-13T11:37:58.881Z,99384.39
2019-03-13T11:39:10.793Z,99401.69
2019-03-13T11:40:34.872Z,99408.97
2019-03-13T11:41:49.775Z,99392.42
2019-03-13T11:43:01.234Z,99401.95
2019-03-13T11:44:10.132Z,99396.27
2019-03-13T11:45:16.433Z,99397.55
2019-03-13T11:46:40.122Z,99407.39
2019-03-13T11:47:52.533Z,99395.09
2019-03-13T11:49:14.834Z,99398.04
2019-03-13T11:50:24.429Z,99406.68
2019-03-13T11:51:48.338Z,99396.91
2019-03-13T11:53:11.374Z,99408.45
2019-03-13T11:54:20.390Z,99398.77
2019-03-13T11:55:32.388Z,99398.74
2019-03-13T11:56:41.039Z,99398.92
2019-03-13T11:57:50.091Z,99398.90
2019-03-13T11:58:56.022Z,99407.81
2019-03-13T12:00:07.587Z,99396.58
2019-03-13T12:01:31.674Z,99399.91
2019-03-13T12:02:43.553Z,99404.50
2019-03-13T12:04:08.528Z,99398.54
2019-03-13T12:05:29.015Z,99393.29
2019-03-13T12:06:37.792Z,99408.77
2019-03-13T12:07:43.972Z,99413.99
2019-03-13T12:08:55.536Z,99402.56
2019-03-13T12:10:08.138Z,99422.37
2019-03-13T12:11:33.315Z,99395.92
2019-03-13T12:12:44.345Z,99408.17
2019-03-13T12:13:50.238Z,99402.92
2019-03-13T12:15:11.344Z,99410.71
2019-03-13T12:16:32.518Z,99397.73
2019-03-13T12:17:56.102Z,99396.22
2019-03-13T12:19:10.426Z,99405.34
2019-03-13T12:20:18.799Z,99405.45
2019-03-13T12:21:24.716Z,99404.59
2019-03-13T12:22:39.548Z,99402.47
2019-03-13T12:23:51.519Z,99401.97
2019-03-13T12:24:57.401Z,99400.09
2019-03-13T12:26:08.916Z,99402.36
2019-03-13T12:27:17.453Z,99406.05
2019-03-13T12:28:26.674Z,99398.63
2019-03-13T12:29:44.284Z,99395.14
2019-03-13T12:30:50.584Z,99396.95
2019-03-13T12:32:05.216Z,99400.20
2019-03-13T12:33:29.676Z,99402.83
2019-03-13T12:34:54.667Z,99400.29
2019-03-13T12:36:15.905Z,99398.23
2019-03-13T12:37:41.073Z,99387.52
2019-03-13T12:38:49.631Z,99389.64
2019-03-13T12:40:12.175Z,99390.64
2019-03-13T12:41:36.916Z,99397.34
2019-03-13T12:42:45.725Z,99394.22
2019-03-13T12:43:51.688Z,99388.16
2019-03-13T12:45:00.524Z,99391.59
2019-03-13T12:46:06.403Z,99392.96
2019-03-13T12:47:13.193Z,99395.45
2019-03-13T12:48:27.760Z,99395.63
2019-03-13T12:49:54.514Z,99396.77
2019-03-13T12:51:09.427Z,99385.27
2019-03-13T12:52:31.635Z,99388.78
2019-03-13T12:53:46.319Z,99392.84
2019-03-13T12:55:08.620Z,99389.34
2019-03-13T12:56:14.514Z,99397.66
2019-03-13T12:57:38.659Z,99390.36
2019-03-13T12:58:57.973Z,99389.34
2019-03-13T13:00:07.986Z,99393.28
2019-03-13T13:01:19.498Z,99388.03
2019-03-13T13:02:25.429Z,99388.06
2019-03-13T13:03:37.355Z,99382.44
2019-03-13T13:04:46.034Z,99387.67
2019-03-13T13:05:58.017Z,99396.77
2019-03-13T13:07:06.828Z,99388.56
2019-03-13T13:08:27.732Z,99383.59
2019-03-13T13:09:36.671Z,99382.27
2019-03-13T13:10:56.659Z,99376.97
2019-03-13T13:12:20.726Z,99377.03
2019-03-13T13:13:29.559Z,99377.98
2019-03-13T13:14:54.766Z,99375.66
2019-03-13T13:16:10.287Z,99370.83
2019-03-13T13:17:31.234Z,99374.77
2019-03-13T13:18:49.268Z,99375.30
2019-03-13T13:19:53.514Z,99375.78
2019-03-13T13:20:57.861Z,99371.00
2019-03-13T13:22:02.427Z,99379.34
2019-03-13T13:23:09.584Z,99368.86
2019-03-13T13:24:13.922Z,99370.25
2019-03-13T13:25:20.835Z,99369.39
2019-03-13T13:26:25.096Z,99368.08
2019-03-13T13:27:32.103Z,99373.38
2019-03-13T13:28:39.497Z,99368.64
2019-03-13T13:29:43.738Z,99368.52
2019-03-13T13:30:47.976Z,99365.02
2019-03-13T13:31:55.231Z,99357.45
2019-03-13T13:32:58.176Z,99360.94
2019-03-13T13:34:05.150Z,99357.56
2019-03-13T13:35:12.467Z,99363.11
2019-03-13T13:36:16.740Z,99360.34
2019-03-13T13:37:24.274Z,99364.16
2019-03-13T13:38:31.519Z,99357.96
2019-03-13T13:39:38.752Z,99364.22
2019-03-13T13:40:45.955Z,99358.61
2019-03-13T13:41:53.125Z,99361.66
2019-03-13T13:42:57.368Z,99358.26
2019-03-13T13:44:04.401Z,99343.69
2019-03-13T13:45:33.284Z,99354.69
2019-03-13T13:46:40.335Z,99353.16
2019-03-13T13:47:44.980Z,99344.70
2019-03-13T13:48:49.237Z,99344.78
2019-03-13T13:49:59.537Z,99350.45
2019-03-13T13:50:59.890Z,99341.78